createdAt,value
2022-09-17T00:01:44.214Z,14.07
2022-09-17T00:04:13.183Z,14.04
2022-09-17T00:06:41.855Z,13.95
2022-09-17T00:09:11.011Z,13.91
2022-09-17T00:11:42.511Z,13.85
2022-09-17T00:14:16.214Z,13.82
2022-09-17T00:16:47.286Z,13.79
2022-09-17T00:19:18.837Z,13.82
2022-09-17T00:21:47.986Z,13.81
2022-09-17T00:24:18.511Z,13.82
2022-09-17T00:26:48.262Z,13.78
2022-09-17T00:29:17.960Z,13.82
2022-09-17T00:31:46.391Z,13.87
2022-09-17T00:34:15.008Z,13.84
2022-09-17T00:36:44.445Z,13.82
2022-09-17T00:39:16.058Z,13.83
2022-09-17T00:41:45.066Z,13.83
2022-09-17T00:44:35.430Z,13.75
2022-09-17T00:47:05.723Z,13.80
2022-09-17T00:49:34.571Z,13.77
2022-09-17T00:52:10.275Z,13.84
2022-09-17T00:54:42.645Z,13.88
2022-09-17T00:57:12.236Z,13.85
2022-09-17T00:59:40.791Z,13.83
2022-09-17T01:02:11.111Z,13.84
2022-09-17T01:04:39.765Z,13.89
2022-09-17T01:07:26.557Z,13.91
2022-09-17T01:09:59.469Z,13.88
2022-09-17T01:12:46.743Z,13.80
2022-09-17T01:15:28.574Z,13.77
2022-09-17T01:18:13.353Z,13.74
2022-09-17T01:21:22.593Z,13.69
2022-09-17T01:24:18.755Z,13.60
2022-09-17T01:27:16.827Z,13.59
2022-09-17T01:30:08.796Z,13.54
2022-09-17T01:32:45.460Z,13.51
2022-09-17T01:35:22.310Z,13.54
2022-09-17T01:38:01.511Z,13.53
2022-09-17T01:40:38.545Z,13.52
2022-09-17T01:43:13.577Z,13.51
2022-09-17T01:45:48.584Z,13.58
2022-09-17T01:48:21.269Z,13.54
2022-09-17T01:50:55.423Z,13.55
2022-09-17T01:53:28.412Z,13.58
2022-09-17T01:56:00.794Z,13.51
2022-09-17T01:58:33.042Z,13.44
2022-09-17T02:01:05.166Z,13.46
2022-09-17T02:03:41.039Z,13.51
2022-09-17T02:06:14.441Z,13.55
2022-09-17T02:08:50.740Z,13.60
2022-09-17T02:11:20.989Z,13.60
2022-09-17T02:13:55.549Z,13.58
2022-09-17T02:16:27.802Z,13.56
2022-09-17T02:19:03.919Z,13.56
2022-09-17T02:21:40.450Z,13.57
2022-09-17T02:24:18.807Z,13.58
2022-09-17T02:26:55.114Z,13.52
2022-09-17T02:29:30.963Z,13.32
2022-09-17T02:31:59.537Z,13.27
2022-09-17T02:34:30.135Z,13.10
2022-09-17T02:36:59.844Z,13.00
2022-09-17T02:39:29.734Z,12.99
2022-09-17T02:42:08.146Z,12.92
2022-09-17T02:44:56.197Z,12.89
2022-09-17T02:47:39.121Z,12.78
2022-09-17T02:50:20.140Z,12.90
2022-09-17T02:53:07.110Z,12.84
2022-09-17T02:55:43.351Z,12.87
2022-09-17T02:58:24.092Z,12.82
2022-09-17T03:00:53.921Z,12.71
2022-09-17T03:03:24.736Z,12.73
2022-09-17T03:05:55.945Z,12.72
2022-09-17T03:08:30.587Z,12.73
2022-09-17T03:10:59.427Z,12.70
2022-09-17T03:13:28.085Z,12.68
2022-09-17T03:15:57.138Z,12.67
2022-09-17T03:18:25.838Z,12.68
2022-09-17T03:20:55.748Z,12.66
2022-09-17T03:23:24.833Z,12.65
2022-09-17T03:25:53.415Z,12.68
2022-09-17T03:28:22.202Z,12.67
2022-09-17T03:30:50.651Z,12.62
2022-09-17T03:33:20.284Z,12.56
2022-09-17T03:35:49.082Z,12.52
2022-09-17T03:38:19.601Z,12.54
2022-09-17T03:40:58.865Z,12.53
2022-09-17T03:43:28.544Z,12.60
2022-09-17T03:45:57.366Z,12.58
2022-09-17T03:48:26.112Z,12.53
2022-09-17T03:50:54.679Z,12.49
2022-09-17T03:53:24.745Z,12.52
2022-09-17T03:55:53.417Z,12.53
2022-09-17T03:58:22.034Z,12.43
2022-09-17T04:00:53.655Z,12.39
2022-09-17T04:03:22.766Z,12.37
2022-09-17T04:05:51.670Z,12.39
2022-09-17T04:08:20.406Z,12.44
2022-09-17T04:10:50.853Z,12.41
2022-09-17T04:13:19.978Z,12.40
2022-09-17T04:15:49.093Z,12.34
2022-09-17T04:18:18.789Z,12.21
2022-09-17T04:20:47.378Z,12.15
2022-09-17T04:23:15.997Z,12.21
2022-09-17T04:25:44.566Z,12.23
2022-09-17T04:28:14.783Z,12.18
2022-09-17T04:30:44.266Z,12.08
2022-09-17T04:33:12.757Z,11.96
2022-09-17T04:35:41.583Z,11.84
2022-09-17T04:38:11.203Z,11.67
2022-09-17T04:40:39.583Z,11.62
2022-09-17T04:43:09.338Z,11.54
2022-09-17T04:45:39.789Z,11.49
2022-09-17T04:48:08.681Z,11.43
2022-09-17T04:50:37.227Z,11.42
2022-09-17T04:53:06.242Z,11.53
2022-09-17T04:55:34.770Z,11.66
2022-09-17T04:58:03.447Z,11.83
2022-09-17T05:00:32.468Z,11.95
2022-09-17T05:03:02.541Z,12.08
2022-09-17T05:05:31.426Z,12.22
2022-09-17T05:07:59.994Z,12.30
2022-09-17T05:10:28.488Z,12.31
2022-09-17T05:12:57.837Z,12.33
2022-09-17T05:15:28.017Z,12.38
2022-09-17T05:17:56.643Z,12.45
2022-09-17T05:20:26.495Z,12.49
2022-09-17T05:22:56.325Z,12.55
2022-09-17T05:25:25.166Z,12.61
2022-09-17T05:27:54.218Z,12.66
2022-09-17T05:30:23.204Z,12.66
2022-09-17T05:33:01.202Z,12.76
2022-09-17T05:35:33.063Z,12.76
2022-09-17T05:38:02.313Z,12.74
2022-09-17T05:40:33.119Z,12.76
2022-09-17T05:43:03.144Z,12.77
2022-09-17T05:45:32.104Z,12.83
2022-09-17T05:48:02.634Z,12.94
2022-09-17T05:50:32.893Z,13.02
2022-09-17T05:53:07.083Z,13.12
2022-09-17T05:55:36.432Z,13.19
2022-09-17T05:58:13.085Z,13.24
2022-09-17T06:00:42.890Z,13.27
2022-09-17T06:03:13.920Z,13.37
2022-09-17T06:05:44.562Z,13.48
2022-09-17T06:08:13.062Z,13.60
2022-09-17T06:10:41.626Z,13.68
2022-09-17T06:13:10.073Z,13.78
2022-09-17T06:15:38.663Z,13.83
2022-09-17T06:18:07.246Z,13.89
2022-09-17T06:20:35.788Z,13.86
2022-09-17T06:23:05.727Z,13.86
2022-09-17T06:25:34.314Z,13.93
2022-09-17T06:28:04.390Z,13.92
2022-09-17T06:30:33.366Z,13.92
2022-09-17T06:33:02.759Z,13.92
2022-09-17T06:35:31.318Z,13.88
2022-09-17T06:37:59.884Z,13.85
2022-09-17T06:40:29.887Z,13.76
2022-09-17T06:43:00.592Z,13.76
2022-09-17T06:45:29.916Z,13.73
2022-09-17T06:47:58.948Z,13.74
2022-09-17T06:50:27.544Z,13.77
2022-09-17T06:52:56.551Z,13.82
2022-09-17T06:55:25.174Z,13.84
2022-09-17T06:57:55.656Z,13.88
2022-09-17T07:00:24.279Z,13.88
2022-09-17T07:03:02.697Z,13.95
2022-09-17T07:05:33.184Z,13.91
2022-09-17T07:08:04.287Z,13.98
2022-09-17T07:10:33.824Z,14.07
2022-09-17T07:13:04.326Z,14.11
2022-09-17T07:15:33.071Z,14.17
2022-09-17T07:18:02.975Z,14.25
2022-09-17T07:20:31.631Z,14.29
2022-09-17T07:23:00.612Z,14.34
2022-09-17T07:25:29.335Z,14.35
2022-09-17T07:27:57.945Z,14.41
2022-09-17T07:30:28.253Z,14.46
2022-09-17T07:32:56.885Z,14.53
2022-09-17T07:35:25.488Z,14.59
2022-09-17T07:37:55.022Z,14.57
2022-09-17T07:40:23.399Z,14.60
2022-09-17T07:42:52.062Z,14.58
2022-09-17T07:45:20.778Z,14.58
2022-09-17T07:47:50.995Z,14.57
2022-09-17T07:50:19.571Z,14.54
2022-09-17T07:52:48.832Z,14.51
2022-09-17T07:55:17.554Z,14.50
2022-09-17T07:57:52.900Z,14.53
2022-09-17T08:00:21.603Z,14.49
2022-09-17T08:02:56.287Z,14.54
2022-09-17T08:05:25.941Z,14.54
2022-09-17T08:07:55.547Z,14.61
2022-09-17T08:10:24.142Z,14.62
2022-09-17T08:12:56.893Z,14.69
2022-09-17T08:15:26.654Z,14.68
2022-09-17T08:17:56.778Z,14.73
2022-09-17T08:20:26.426Z,14.77
2022-09-17T08:23:01.221Z,14.85
2022-09-17T08:25:29.892Z,14.88
2022-09-17T08:27:58.477Z,14.89
2022-09-17T08:30:27.107Z,14.89
2022-09-17T08:32:58.533Z,14.88
2022-09-17T08:35:28.327Z,14.93
2022-09-17T08:37:57.032Z,14.97
2022-09-17T08:40:28.279Z,14.98
2022-09-17T08:43:02.714Z,14.91
2022-09-17T08:45:31.491Z,14.92
2022-09-17T08:48:07.182Z,14.91
2022-09-17T08:50:42.292Z,14.92
2022-09-17T08:53:24.967Z,14.93
2022-09-17T08:56:00.638Z,14.95
2022-09-17T08:58:46.654Z,14.88
2022-09-17T09:01:29.844Z,14.96
2022-09-17T09:04:21.582Z,14.92
2022-09-17T09:06:54.013Z,14.90
2022-09-17T09:09:27.720Z,14.91
2022-09-17T09:12:04.782Z,14.90
2022-09-17T09:14:38.657Z,14.94
2022-09-17T09:17:11.303Z,14.91
2022-09-17T09:19:45.815Z,14.92
2022-09-17T09:22:28.676Z,14.96
2022-09-17T09:25:11.947Z,14.93
2022-09-17T09:27:47.572Z,14.94
2022-09-17T09:30:23.860Z,14.97
2022-09-17T09:33:02.202Z,14.98
2022-09-17T09:35:34.889Z,14.95
2022-09-17T09:38:13.989Z,14.97
2022-09-17T09:40:48.138Z,14.96
2022-09-17T09:43:21.855Z,14.96
2022-09-17T09:46:16.455Z,15.01
2022-09-17T09:48:54.111Z,15.05
2022-09-17T09:51:34.654Z,15.06
2022-09-17T09:54:21.045Z,15.11
2022-09-17T09:56:57.455Z,15.17
2022-09-17T09:59:26.475Z,15.23
2022-09-17T10:01:55.313Z,15.24
2022-09-17T10:04:26.180Z,15.29
2022-09-17T10:07:03.386Z,15.29
2022-09-17T10:09:33.158Z,15.40
2022-09-17T10:12:16.101Z,15.42
2022-09-17T10:14:46.338Z,15.49
2022-09-17T10:17:22.030Z,15.59
2022-09-17T10:20:12.589Z,15.63
2022-09-17T10:22:45.566Z,15.62
2022-09-17T10:25:28.968Z,15.64
2022-09-17T10:28:00.369Z,15.63
2022-09-17T10:30:30.153Z,15.66
2022-09-17T10:33:18.957Z,15.70
2022-09-17T10:36:03.481Z,15.66
2022-09-17T10:38:37.154Z,15.68
2022-09-17T10:41:14.820Z,15.70
2022-09-17T10:43:44.448Z,15.68
2022-09-17T10:46:18.312Z,15.65
2022-09-17T10:48:55.439Z,15.70
2022-09-17T10:51:26.369Z,15.69
2022-09-17T10:54:23.729Z,15.65
2022-09-17T10:56:58.699Z,15.66
2022-09-17T10:59:47.804Z,15.71
2022-09-17T11:02:47.816Z,15.80
2022-09-17T11:05:43.230Z,15.85
2022-09-17T11:08:18.786Z,15.90
2022-09-17T11:10:55.785Z,15.95
2022-09-17T11:13:35.425Z,15.96
2022-09-17T11:16:33.897Z,15.96
2022-09-17T11:19:14.164Z,15.99
2022-09-17T11:21:47.323Z,16.14
2022-09-17T11:24:35.774Z,16.30
2022-09-17T11:27:15.893Z,16.42
2022-09-17T11:30:03.906Z,16.52
2022-09-17T11:32:51.118Z,16.52
2022-09-17T11:35:24.492Z,16.62
2022-09-17T11:38:00.031Z,16.64
2022-09-17T11:40:38.456Z,16.73
2022-09-17T11:43:16.420Z,16.71
2022-09-17T11:45:56.991Z,16.75
2022-09-17T11:48:33.252Z,16.76
2022-09-17T11:51:09.031Z,16.79
2022-09-17T11:53:42.420Z,16.61
2022-09-17T11:56:20.701Z,16.52
2022-09-17T11:58:53.662Z,16.46
2022-09-17T12:01:32.885Z,16.42
2022-09-17T12:04:07.270Z,16.32
2022-09-17T12:06:45.526Z,16.35
2022-09-17T12:09:19.428Z,16.40
2022-09-17T12:11:54.371Z,16.28
2022-09-17T12:14:28.278Z,16.28
2022-09-17T12:17:01.724Z,16.30
2022-09-17T12:19:36.311Z,16.37
2022-09-17T12:22:11.647Z,16.42
2022-09-17T12:24:40.726Z,16.46
2022-09-17T12:27:22.625Z,16.36
2022-09-17T12:30:10.629Z,16.34
2022-09-17T12:33:12.019Z,16.30
2022-09-17T12:36:08.995Z,16.33
2022-09-17T12:39:04.165Z,16.24
2022-09-17T12:41:44.105Z,16.17
2022-09-17T12:44:31.184Z,16.13
2022-09-17T12:47:20.308Z,16.02
2022-09-17T12:50:09.441Z,15.92
2022-09-17T12:52:54.593Z,15.89
2022-09-17T12:55:34.784Z,15.87
2022-09-17T12:58:14.254Z,15.81
2022-09-17T13:00:47.608Z,15.79
2022-09-17T13:03:26.732Z,15.68
2022-09-17T13:06:18.252Z,15.58
2022-09-17T13:09:06.423Z,15.48
2022-09-17T13:12:01.328Z,15.45
2022-09-17T13:14:44.127Z,15.44
2022-09-17T13:17:23.777Z,15.43
2022-09-17T13:20:01.766Z,15.40
2022-09-17T13:22:34.897Z,15.35
2022-09-17T13:25:09.250Z,15.30
2022-09-17T13:27:39.733Z,15.31
2022-09-17T13:30:11.091Z,15.31
2022-09-17T13:32:51.124Z,15.27
2022-09-17T13:35:41.504Z,15.25
2022-09-17T13:38:10.644Z,15.24
2022-09-17T13:40:41.024Z,15.22
2022-09-17T13:43:14.095Z,15.20
2022-09-17T13:46:11.450Z,15.22
2022-09-17T13:48:51.895Z,15.24
2022-09-17T13:51:48.326Z,15.22
2022-09-17T13:54:18.847Z,15.22
2022-09-17T13:57:04.170Z,15.20
2022-09-17T13:59:32.998Z,15.16
2022-09-17T14:02:35.504Z,15.10
2022-09-17T14:05:29.839Z,15.07
2022-09-17T14:08:12.995Z,15.09
2022-09-17T14:10:47.776Z,15.09
2022-09-17T14:13:40.458Z,15.15
2022-09-17T14:16:37.724Z,15.20
2022-09-17T14:19:32.247Z,15.22
2022-09-17T14:22:04.356Z,15.21
2022-09-17T14:24:38.801Z,15.21
2022-09-17T14:27:37.473Z,15.21
2022-09-17T14:30:19.857Z,15.20
2022-09-17T14:33:00.852Z,15.13
2022-09-17T14:35:36.779Z,15.11
2022-09-17T14:38:16.593Z,15.09
2022-09-17T14:40:46.983Z,15.09
2022-09-17T14:43:22.709Z,15.05
2022-09-17T14:45:55.062Z,15.03
2022-09-17T14:48:32.202Z,15.03
2022-09-17T14:51:21.530Z,15.03
2022-09-17T14:53:51.444Z,15.06
2022-09-17T14:56:24.081Z,15.08
2022-09-17T14:58:54.895Z,15.11
2022-09-17T15:01:27.584Z,15.12
2022-09-17T15:04:22.066Z,15.06
2022-09-17T15:06:51.777Z,15.02
2022-09-17T15:09:23.696Z,15.05
2022-09-17T15:11:56.234Z,15.04
2022-09-17T15:14:30.052Z,15.03
2022-09-17T15:17:02.822Z,15.04
2022-09-17T15:19:36.078Z,15.00
2022-09-17T15:22:09.177Z,14.99
2022-09-17T15:24:44.165Z,14.98
2022-09-17T15:27:22.494Z,14.94
2022-09-17T15:29:55.293Z,14.90
2022-09-17T15:32:25.489Z,14.90
2022-09-17T15:35:22.429Z,14.93
2022-09-17T15:38:21.192Z,14.89
2022-09-17T15:40:43.124Z,14.87
2022-09-17T15:43:20.056Z,14.88
2022-09-17T15:45:48.765Z,14.87
2022-09-17T15:48:37.639Z,14.86
2022-09-17T15:51:08.329Z,14.85
2022-09-17T15:53:37.886Z,14.83
2022-09-17T15:56:09.850Z,14.83
2022-09-17T15:58:55.063Z,14.84
2022-09-17T16:01:53.421Z,14.84
2022-09-17T16:04:26.471Z,14.79
2022-09-17T16:06:58.271Z,14.81
2022-09-17T16:09:43.190Z,14.79
2022-09-17T16:12:15.470Z,14.75
2022-09-17T16:14:48.742Z,14.69
2022-09-17T16:17:25.122Z,14.69
2022-09-17T16:19:55.901Z,14.70
2022-09-17T16:22:26.606Z,14.69
2022-09-17T16:24:55.171Z,14.66
2022-09-17T16:27:27.739Z,14.61
2022-09-17T16:30:02.889Z,14.53
2022-09-17T16:32:32.060Z,14.54
2022-09-17T16:35:02.197Z,14.51
2022-09-17T16:37:31.296Z,14.53
2022-09-17T16:40:01.273Z,14.51
2022-09-17T16:42:32.398Z,14.54
2022-09-17T16:45:03.880Z,14.53
2022-09-17T16:47:37.512Z,14.49
2022-09-17T16:50:10.428Z,14.46
2022-09-17T16:52:39.110Z,14.43
2022-09-17T16:55:08.548Z,14.41
2022-09-17T16:57:37.148Z,14.38
2022-09-17T17:00:07.416Z,14.36
2022-09-17T17:02:38.410Z,14.32
2022-09-17T17:05:10.883Z,14.28
2022-09-17T17:07:41.045Z,14.17
2022-09-17T17:10:10.471Z,14.07
2022-09-17T17:12:40.187Z,14.01
2022-09-17T17:15:10.433Z,13.90
2022-09-17T17:17:39.344Z,13.83
2022-09-17T17:20:13.067Z,13.75
2022-09-17T17:22:43.675Z,13.67
2022-09-17T17:25:13.913Z,13.72
2022-09-17T17:27:42.718Z,13.72
2022-09-17T17:30:17.006Z,13.79
2022-09-17T17:32:50.419Z,13.77
2022-09-17T17:35:23.867Z,13.79
2022-09-17T17:37:52.776Z,13.81
2022-09-17T17:40:21.382Z,13.81
2022-09-17T17:42:54.532Z,13.79
2022-09-17T17:45:23.434Z,13.80
2022-09-17T17:47:53.824Z,13.81
2022-09-17T17:50:23.865Z,13.77
2022-09-17T17:52:55.761Z,13.79
2022-09-17T17:55:24.604Z,13.79
2022-09-17T17:58:01.109Z,13.80
2022-09-17T18:00:30.338Z,13.78
2022-09-17T18:02:58.887Z,13.78
2022-09-17T18:05:28.959Z,13.75
2022-09-17T18:07:57.714Z,13.73
2022-09-17T18:10:26.448Z,13.68
2022-09-17T18:12:55.590Z,13.65
2022-09-17T18:15:24.417Z,13.60
2022-09-17T18:17:54.662Z,13.57
2022-09-17T18:20:23.518Z,13.54
2022-09-17T18:22:53.497Z,13.55
2022-09-17T18:25:22.252Z,13.52
2022-09-17T18:27:50.753Z,13.51
2022-09-17T18:30:19.618Z,13.45
2022-09-17T18:32:49.945Z,13.48
2022-09-17T18:35:20.359Z,13.50
2022-09-17T18:37:49.031Z,13.50
2022-09-17T18:40:19.123Z,13.52
2022-09-17T18:42:50.087Z,13.52
2022-09-17T18:45:18.893Z,13.56
2022-09-17T18:47:47.461Z,13.59
2022-09-17T18:50:16.671Z,13.60
2022-09-17T18:52:45.228Z,13.57
2022-09-17T18:55:14.078Z,13.51
2022-09-17T18:57:44.254Z,13.48
2022-09-17T19:00:13.204Z,13.48
2022-09-17T19:02:42.060Z,13.50
2022-09-17T19:05:13.132Z,13.46
2022-09-17T19:07:45.738Z,13.48
2022-09-17T19:10:15.294Z,13.50
2022-09-17T19:12:48.272Z,13.52
2022-09-17T19:15:17.274Z,13.54
2022-09-17T19:17:46.034Z,13.53
2022-09-17T19:20:15.018Z,13.57
2022-09-17T19:22:43.652Z,13.58
2022-09-17T19:25:12.725Z,13.58
2022-09-17T19:27:41.304Z,13.60
2022-09-17T19:30:13.103Z,13.59
2022-09-17T19:32:46.850Z,13.60
2022-09-17T19:35:17.197Z,13.60
2022-09-17T19:37:45.847Z,13.59
2022-09-17T19:40:14.614Z,13.59
2022-09-17T19:42:43.726Z,13.60
2022-09-17T19:45:14.474Z,13.58
2022-09-17T19:47:42.996Z,13.56
2022-09-17T19:50:11.586Z,13.57
2022-09-17T19:52:41.449Z,13.54
2022-09-17T19:55:12.973Z,13.53
2022-09-17T19:57:42.386Z,13.53
2022-09-17T20:00:12.310Z,13.52
2022-09-17T20:02:43.055Z,13.56
2022-09-17T20:05:11.955Z,13.59
2022-09-17T20:07:40.482Z,13.57
2022-09-17T20:10:09.776Z,13.54
2022-09-17T20:12:38.374Z,13.48
2022-09-17T20:15:08.721Z,13.49
2022-09-17T20:17:37.410Z,13.50
2022-09-17T20:20:08.636Z,13.50
2022-09-17T20:22:37.368Z,13.50
2022-09-17T20:25:06.778Z,13.46
2022-09-17T20:27:35.498Z,13.43
2022-09-17T20:30:04.064Z,13.41
2022-09-17T20:32:34.170Z,13.36
2022-09-17T20:35:02.696Z,13.32
2022-09-17T20:38:12.325Z,13.30
2022-09-17T20:40:21.487Z,13.26
2022-09-17T20:42:50.115Z,13.27
2022-09-17T20:45:18.736Z,13.21
2022-09-17T20:47:49.066Z,13.22
2022-09-17T20:50:18.436Z,13.21
2022-09-17T20:52:48.446Z,13.21
2022-09-17T20:55:18.036Z,13.18
2022-09-17T20:57:46.597Z,13.13
2022-09-17T21:00:17.591Z,13.09
2022-09-17T21:02:50.759Z,13.06
2022-09-17T21:05:19.866Z,13.05
2022-09-17T21:07:49.753Z,12.97
2022-09-17T21:10:18.254Z,12.95
2022-09-17T21:12:46.722Z,12.93
2022-09-17T21:15:15.309Z,12.91
2022-09-17T21:17:45.672Z,12.89
2022-09-17T21:20:14.964Z,12.88
2022-09-17T21:22:44.382Z,12.82
2022-09-17T21:25:14.451Z,12.81
2022-09-17T21:27:42.991Z,12.81
2022-09-17T21:30:12.905Z,12.83
2022-09-17T21:32:41.567Z,12.86
2022-09-17T21:35:10.616Z,12.83
2022-09-17T21:37:39.287Z,12.79
2022-09-17T21:40:09.185Z,12.77
2022-09-17T21:42:39.429Z,12.71
2022-09-17T21:45:08.511Z,12.74
2022-09-17T21:47:37.172Z,12.76
2022-09-17T21:50:06.677Z,12.69
2022-09-17T21:52:36.098Z,12.66
2022-09-17T21:55:04.906Z,12.58
2022-09-17T21:57:33.551Z,12.55
2022-09-17T22:00:06.012Z,12.52
2022-09-17T22:02:36.073Z,12.57
2022-09-17T22:05:05.157Z,12.62
2022-09-17T22:07:33.738Z,12.64
2022-09-17T22:10:02.245Z,12.62
2022-09-17T22:12:30.868Z,12.63
2022-09-17T22:14:59.554Z,12.61
2022-09-17T22:17:29.669Z,12.62
2022-09-17T22:19:58.174Z,12.59
2022-09-17T22:22:26.736Z,12.58
2022-09-17T22:24:55.306Z,12.58
2022-09-17T22:27:23.926Z,12.59
2022-09-17T22:29:52.518Z,12.56
2022-09-17T22:32:21.408Z,12.57
2022-09-17T22:34:51.257Z,12.59
2022-09-17T22:37:19.919Z,12.57
2022-09-17T22:39:48.420Z,12.56
2022-09-17T22:42:16.979Z,12.54
2022-09-17T22:44:45.539Z,12.56
2022-09-17T22:47:14.216Z,12.55
2022-09-17T22:49:42.828Z,12.54
2022-09-17T22:52:12.777Z,12.47
2022-09-17T22:54:42.109Z,12.52
2022-09-17T22:57:10.629Z,12.55
2022-09-17T22:59:39.301Z,12.58
2022-09-17T23:02:09.287Z,12.60
2022-09-17T23:04:37.878Z,12.59
2022-09-17T23:07:06.758Z,12.59
2022-09-17T23:09:36.798Z,12.58
2022-09-17T23:12:05.649Z,12.59
2022-09-17T23:14:34.420Z,12.58
2022-09-17T23:17:03.010Z,12.54
2022-09-17T23:19:31.771Z,12.48
2022-09-17T23:22:00.251Z,12.46
2022-09-17T23:24:29.002Z,12.45
2022-09-17T23:26:59.417Z,12.46
2022-09-17T23:29:28.088Z,12.46
2022-09-17T23:31:56.811Z,12.48
2022-09-17T23:34:25.348Z,12.44
2022-09-17T23:36:53.814Z,12.41
2022-09-17T23:39:22.428Z,12.34
2022-09-17T23:41:50.974Z,12.29
2022-09-17T23:44:20.913Z,12.29
2022-09-17T23:46:49.621Z,12.29
2022-09-17T23:49:18.222Z,12.27
2022-09-17T23:51:47.339Z,12.20
2022-09-17T23:54:16.077Z,12.19
2022-09-17T23:56:44.727Z,12.16
2022-09-17T23:59:14.468Z,12.14
